createdAt,value
2023-05-04T00:01:21.311Z,6.86
2023-05-04T00:03:50.323Z,6.93
2023-05-04T00:06:18.012Z,6.93
2023-05-04T00:08:45.502Z,6.91
2023-05-04T00:11:13.057Z,6.97
2023-05-04T00:13:40.549Z,7.17
2023-05-04T00:16:10.605Z,7.17
2023-05-04T00:18:38.636Z,6.84
2023-05-04T00:21:08.009Z,6.95
2023-05-04T00:23:35.629Z,7.08
2023-05-04T00:26:03.156Z,6.81
2023-05-04T00:28:30.658Z,6.83
2023-05-04T00:30:58.127Z,6.68
2023-05-04T00:33:25.647Z,6.63
2023-05-04T00:35:53.132Z,6.74
2023-05-04T00:38:22.013Z,6.87
2023-05-04T00:40:50.135Z,6.79
2023-05-04T00:43:17.605Z,6.74
2023-05-04T00:45:45.167Z,6.50
2023-05-04T00:48:13.254Z,6.54
2023-05-04T00:50:40.931Z,6.52
2023-05-04T00:53:10.126Z,6.10
2023-05-04T00:55:40.625Z,6.24
2023-05-04T00:58:08.929Z,6.10
2023-05-04T01:00:36.913Z,6.20
2023-05-04T01:03:04.773Z,6.28
2023-05-04T01:05:36.281Z,6.11
2023-05-04T01:08:08.682Z,6.13
2023-05-04T01:10:43.414Z,6.22
2023-05-04T01:13:13.534Z,6.00
2023-05-04T01:15:43.162Z,5.92
2023-05-04T01:18:10.968Z,5.81
2023-05-04T01:20:38.443Z,5.77
2023-05-04T01:23:07.339Z,6.02
2023-05-04T01:25:39.032Z,5.99
2023-05-04T01:28:09.580Z,5.76
2023-05-04T01:30:39.104Z,5.91
2023-05-04T01:33:07.334Z,5.67
2023-05-04T01:35:37.567Z,5.72
2023-05-04T01:38:06.533Z,5.61
2023-05-04T01:40:34.002Z,5.51
2023-05-04T01:43:01.493Z,5.60
2023-05-04T01:45:29.176Z,5.59
2023-05-04T01:47:56.724Z,5.75
2023-05-04T01:50:24.295Z,5.29
2023-05-04T01:52:51.784Z,5.37
2023-05-04T01:55:20.729Z,5.40
2023-05-04T01:57:48.221Z,5.40
2023-05-04T02:00:16.374Z,5.35
2023-05-04T02:02:44.021Z,5.32
2023-05-04T02:05:15.479Z,5.27
2023-05-04T02:07:43.300Z,5.23
2023-05-04T02:10:11.389Z,5.11
2023-05-04T02:12:41.617Z,5.08
2023-05-04T02:15:09.599Z,5.11
2023-05-04T02:17:37.147Z,4.99
2023-05-04T02:20:06.039Z,4.92
2023-05-04T02:22:33.984Z,4.97
2023-05-04T02:25:01.520Z,5.06
2023-05-04T02:27:29.023Z,5.11
2023-05-04T02:29:59.101Z,4.93
2023-05-04T02:32:27.147Z,4.89
2023-05-04T02:34:54.677Z,4.88
2023-05-04T02:37:22.371Z,5.03
2023-05-04T02:39:49.915Z,4.74
2023-05-04T02:42:17.658Z,4.72
2023-05-04T02:44:45.255Z,4.71
2023-05-04T02:47:14.214Z,4.70
2023-05-04T02:49:41.740Z,4.76
2023-05-04T02:52:09.198Z,4.66
2023-05-04T02:54:38.467Z,4.60
2023-05-04T02:57:06.450Z,4.72
2023-05-04T02:59:34.847Z,4.76
2023-05-04T03:02:02.354Z,4.86
2023-05-04T03:04:31.296Z,4.68
2023-05-04T03:06:58.834Z,4.66
2023-05-04T03:09:26.336Z,4.67
2023-05-04T03:11:53.840Z,4.62
2023-05-04T03:14:21.398Z,4.61
2023-05-04T03:16:49.002Z,4.60
2023-05-04T03:19:18.896Z,4.43
2023-05-04T03:21:48.299Z,4.39
2023-05-04T03:24:18.622Z,4.35
2023-05-04T03:26:47.157Z,4.32
2023-05-04T03:29:15.085Z,4.34
2023-05-04T03:31:42.769Z,4.42
2023-05-04T03:34:14.791Z,4.34
2023-05-04T03:36:42.615Z,4.30
2023-05-04T03:39:11.497Z,4.35
2023-05-04T03:41:39.017Z,4.53
2023-05-04T03:44:06.494Z,4.45
2023-05-04T03:46:35.736Z,4.43
2023-05-04T03:49:03.402Z,4.39
2023-05-04T03:51:31.306Z,4.38
2023-05-04T03:53:58.834Z,4.31
2023-05-04T03:56:27.645Z,4.27
2023-05-04T03:58:55.320Z,4.18
2023-05-04T04:01:27.409Z,4.06
2023-05-04T04:03:54.981Z,3.99
2023-05-04T04:06:22.799Z,3.97
2023-05-04T04:08:50.449Z,3.95
2023-05-04T04:11:17.995Z,4.08
2023-05-04T04:13:46.818Z,4.11
2023-05-04T04:16:14.285Z,4.13
2023-05-04T04:18:41.803Z,4.17
2023-05-04T04:21:10.308Z,4.03
2023-05-04T04:23:37.916Z,4.21
2023-05-04T04:26:06.155Z,4.11
2023-05-04T04:28:33.673Z,3.90
2023-05-04T04:31:03.296Z,3.68
2023-05-04T04:33:31.066Z,3.67
2023-05-04T04:35:58.591Z,3.85
2023-05-04T04:38:26.260Z,3.81
2023-05-04T04:40:53.741Z,3.93
2023-05-04T04:43:21.568Z,4.01
2023-05-04T04:45:49.171Z,4.12
2023-05-04T04:48:21.348Z,4.16
2023-05-04T04:50:49.023Z,4.24
2023-05-04T04:53:16.744Z,4.19
2023-05-04T04:55:44.212Z,4.29
2023-05-04T04:58:11.835Z,4.43
2023-05-04T05:00:39.416Z,4.38
2023-05-04T05:03:06.968Z,4.48
2023-05-04T05:05:35.819Z,4.52
2023-05-04T05:08:03.337Z,4.67
2023-05-04T05:10:30.870Z,4.65
2023-05-04T05:12:58.390Z,4.65
2023-05-04T05:15:26.183Z,4.82
2023-05-04T05:17:53.759Z,4.88
2023-05-04T05:20:21.361Z,4.90
2023-05-04T05:22:51.543Z,4.88
2023-05-04T05:25:19.627Z,4.96
2023-05-04T05:27:47.123Z,5.07
2023-05-04T05:30:14.793Z,5.20
2023-05-04T05:32:42.833Z,5.19
2023-05-04T05:35:10.871Z,5.26
2023-05-04T05:37:38.382Z,5.33
2023-05-04T05:40:08.726Z,5.51
2023-05-04T05:42:36.625Z,5.61
2023-05-04T05:45:04.666Z,5.67
2023-05-04T05:47:32.335Z,5.84
2023-05-04T05:49:59.887Z,6.06
2023-05-04T05:52:27.383Z,6.17
2023-05-04T05:54:54.995Z,6.33
2023-05-04T05:57:23.821Z,6.50
2023-05-04T05:59:51.419Z,6.63
2023-05-04T06:02:19.084Z,6.80
2023-05-04T06:04:46.757Z,6.93
2023-05-04T06:07:14.517Z,6.94
2023-05-04T06:09:42.070Z,7.06
2023-05-04T06:12:13.392Z,7.15
2023-05-04T06:14:42.257Z,7.22
2023-05-04T06:17:09.880Z,7.34
2023-05-04T06:19:38.405Z,7.49
2023-05-04T06:22:06.183Z,7.60
2023-05-04T06:24:33.815Z,7.73
2023-05-04T06:27:01.806Z,7.86
2023-05-04T06:29:29.358Z,7.98
2023-05-04T06:31:58.256Z,8.11
2023-05-04T06:34:25.808Z,8.29
2023-05-04T06:36:53.265Z,8.39
2023-05-04T06:39:20.813Z,8.51
2023-05-04T06:41:48.337Z,8.64
2023-05-04T06:44:18.932Z,8.79
2023-05-04T06:46:46.435Z,8.93
2023-05-04T06:49:15.225Z,9.04
2023-05-04T06:51:42.738Z,9.16
2023-05-04T06:54:10.220Z,9.38
2023-05-04T06:56:39.517Z,9.62
2023-05-04T06:59:08.202Z,9.82
2023-05-04T07:01:35.803Z,9.98
2023-05-04T07:04:03.412Z,10.13
2023-05-04T07:06:32.366Z,10.28
2023-05-04T07:09:00.150Z,10.36
2023-05-04T07:11:28.659Z,10.51
2023-05-04T07:13:56.225Z,10.69
2023-05-04T07:16:23.744Z,10.84
2023-05-04T07:18:51.358Z,11.07
2023-05-04T07:23:50.609Z,11.34
2023-05-04T07:26:18.111Z,11.60
2023-05-04T07:28:45.628Z,11.94
2023-05-04T07:31:14.394Z,12.29
2023-05-04T07:33:42.170Z,12.58
2023-05-04T07:36:09.773Z,12.73
2023-05-04T07:38:37.630Z,12.88
2023-05-04T07:41:07.190Z,13.03
2023-05-04T07:43:34.713Z,13.16
2023-05-04T07:46:03.162Z,13.33
2023-05-04T07:48:30.740Z,13.53
2023-05-04T07:50:58.227Z,13.64
2023-05-04T07:53:26.736Z,13.63
2023-05-04T07:55:57.211Z,13.69
2023-05-04T07:58:26.435Z,13.70
2023-05-04T08:00:53.945Z,13.75
2023-05-04T08:03:21.707Z,13.89
2023-05-04T08:05:49.228Z,13.92
2023-05-04T08:08:16.776Z,14.15
2023-05-04T08:10:44.298Z,14.31
2023-05-04T08:13:11.969Z,14.43
2023-05-04T08:15:41.271Z,14.64
2023-05-04T08:18:08.754Z,14.72
2023-05-04T08:20:36.543Z,14.87
2023-05-04T08:23:04.904Z,14.85
2023-05-04T08:25:32.434Z,14.88
2023-05-04T08:27:59.888Z,14.88
2023-05-04T08:30:27.727Z,15.02
2023-05-04T08:32:56.755Z,15.31
2023-05-04T08:35:26.020Z,15.41
2023-05-04T08:37:53.506Z,15.42
2023-05-04T08:40:21.846Z,15.30
2023-05-04T08:42:50.613Z,15.47
2023-05-04T08:45:18.344Z,15.61
2023-05-04T08:47:46.384Z,15.64
2023-05-04T08:50:15.395Z,15.81
2023-05-04T08:52:46.194Z,16.14
2023-05-04T08:55:14.988Z,16.24
2023-05-04T08:57:44.222Z,16.22
2023-05-04T09:00:13.400Z,16.21
2023-05-04T09:02:41.499Z,16.26
2023-05-04T09:05:11.474Z,16.39
2023-05-04T09:07:40.324Z,16.56
2023-05-04T09:10:09.106Z,16.59
2023-05-04T09:12:37.858Z,16.74
2023-05-04T09:15:16.551Z,16.78
2023-05-04T09:17:57.018Z,17.19
2023-05-04T09:20:25.673Z,17.28
2023-05-04T09:23:07.833Z,17.40
2023-05-04T09:25:35.800Z,17.40
2023-05-04T09:28:03.287Z,17.46
2023-05-04T09:30:30.762Z,17.61
2023-05-04T09:32:58.298Z,17.48
2023-05-04T09:35:33.627Z,17.52
2023-05-04T09:38:02.208Z,17.48
2023-05-04T09:40:38.742Z,17.94
2023-05-04T09:43:06.615Z,18.11
2023-05-04T09:45:41.221Z,18.19
2023-05-04T09:48:19.110Z,18.14
2023-05-04T09:50:51.081Z,18.08
2023-05-04T09:53:21.729Z,18.03
2023-05-04T09:55:59.969Z,18.28
2023-05-04T09:58:30.595Z,18.50
2023-05-04T10:00:59.033Z,17.76
2023-05-04T10:03:27.627Z,17.94
2023-05-04T10:05:55.371Z,18.16
2023-05-04T10:08:23.538Z,18.56
2023-05-04T10:10:53.512Z,18.82
2023-05-04T10:13:21.132Z,18.70
2023-05-04T10:16:00.894Z,18.81
2023-05-04T10:18:39.740Z,19.15
2023-05-04T10:21:30.518Z,19.19
2023-05-04T10:24:20.451Z,19.34
2023-05-04T10:26:59.572Z,19.47
2023-05-04T10:29:29.314Z,19.86
2023-05-04T10:31:57.778Z,20.08
2023-05-04T10:34:26.812Z,20.34
2023-05-04T10:36:54.391Z,20.19
2023-05-04T10:39:22.985Z,20.24
2023-05-04T10:42:03.903Z,20.09
2023-05-04T10:44:32.748Z,20.07
2023-05-04T10:47:01.894Z,20.13
2023-05-04T10:49:30.394Z,20.12
2023-05-04T10:52:06.916Z,19.86
2023-05-04T10:54:36.077Z,20.21
2023-05-04T10:57:07.488Z,20.53
2023-05-04T10:59:36.722Z,20.63
2023-05-04T11:02:05.335Z,20.99
2023-05-04T11:04:33.426Z,20.53
2023-05-04T11:07:02.679Z,18.99
2023-05-04T11:09:37.716Z,19.66
2023-05-04T11:12:07.700Z,20.55
2023-05-04T11:14:37.982Z,21.39
2023-05-04T11:17:23.945Z,21.58
2023-05-04T11:19:54.725Z,21.64
2023-05-04T11:22:22.369Z,21.70
2023-05-04T11:24:49.983Z,21.71
2023-05-04T11:27:29.112Z,21.65
2023-05-04T11:29:57.486Z,21.66
2023-05-04T11:32:35.043Z,21.55
2023-05-04T11:35:04.092Z,21.44
2023-05-04T11:37:32.620Z,21.48
2023-05-04T11:42:29.213Z,21.49
2023-05-04T11:44:56.941Z,21.28
2023-05-04T11:47:26.398Z,21.37
2023-05-04T11:49:54.205Z,21.46
2023-05-04T11:52:24.211Z,21.46
2023-05-04T11:54:56.893Z,21.14
2023-05-04T11:57:24.830Z,20.12
2023-05-04T11:59:53.698Z,20.73
2023-05-04T12:02:21.311Z,20.97
2023-05-04T12:04:48.850Z,21.30
2023-05-04T12:07:16.611Z,21.33
2023-05-04T12:09:47.986Z,21.02
2023-05-04T12:12:16.430Z,21.04
2023-05-04T12:14:50.956Z,21.08
2023-05-04T12:17:20.358Z,21.08
2023-05-04T12:19:48.944Z,21.17
2023-05-04T12:22:16.818Z,21.21
2023-05-04T12:24:44.379Z,21.26
2023-05-04T12:27:15.179Z,21.17
2023-05-04T12:29:42.673Z,20.78
2023-05-04T12:32:10.302Z,20.89
2023-05-04T12:34:39.304Z,20.49
2023-05-04T12:37:07.004Z,20.55
2023-05-04T12:39:34.517Z,20.69
2023-05-04T12:42:02.177Z,21.22
2023-05-04T12:44:29.652Z,21.12
2023-05-04T12:46:57.360Z,21.15
2023-05-04T12:49:25.075Z,21.44
2023-05-04T12:51:53.878Z,21.62
2023-05-04T12:54:21.348Z,21.78
2023-05-04T12:56:48.853Z,21.92
2023-05-04T12:59:16.415Z,21.85
2023-05-04T13:01:44.078Z,21.81
2023-05-04T13:04:11.588Z,21.81
2023-05-04T13:06:39.240Z,21.63
2023-05-04T13:09:08.674Z,21.67
2023-05-04T13:11:36.222Z,21.74
2023-05-04T13:14:03.720Z,21.74
2023-05-04T13:16:31.673Z,21.55
2023-05-04T13:18:59.367Z,21.55
2023-05-04T13:21:26.903Z,21.30
2023-05-04T13:23:54.451Z,21.28
2023-05-04T13:26:23.285Z,21.28
2023-05-04T13:28:51.478Z,21.04
2023-05-04T13:31:19.171Z,20.74
2023-05-04T13:33:47.372Z,20.74
2023-05-04T13:36:14.957Z,20.67
2023-05-04T13:38:43.949Z,20.67
2023-05-04T13:41:11.549Z,20.58
2023-05-04T13:43:40.369Z,20.56
2023-05-04T13:46:07.903Z,20.68
2023-05-04T13:48:35.587Z,20.66
2023-05-04T13:51:03.584Z,20.72
2023-05-04T13:53:31.091Z,20.70
2023-05-04T13:55:58.596Z,20.60
2023-05-04T13:58:26.075Z,20.71
2023-05-04T14:00:57.749Z,20.91
2023-05-04T14:03:25.778Z,21.00
2023-05-04T14:05:53.763Z,20.91
2023-05-04T14:08:21.336Z,20.98
2023-05-04T14:10:49.245Z,21.11
2023-05-04T14:13:16.985Z,20.86
2023-05-04T14:15:45.447Z,20.99
2023-05-04T14:18:14.443Z,21.16
2023-05-04T14:20:42.008Z,21.30
2023-05-04T14:23:09.474Z,21.36
2023-05-04T14:25:36.968Z,21.26
2023-05-04T14:28:04.674Z,21.38
2023-05-04T14:30:33.570Z,21.45
2023-05-04T14:33:03.570Z,21.47
2023-05-04T14:35:32.811Z,21.30
2023-05-04T14:38:00.431Z,21.40
2023-05-04T14:40:27.913Z,21.39
2023-05-04T14:42:57.490Z,20.99
2023-05-04T14:45:25.008Z,21.10
2023-05-04T14:47:52.567Z,21.16
2023-05-04T14:50:21.489Z,20.89
2023-05-04T14:52:50.284Z,20.67
2023-05-04T14:55:17.786Z,20.58
2023-05-04T14:57:45.278Z,20.50
2023-05-04T15:00:14.749Z,20.61
2023-05-04T15:02:42.358Z,20.58
2023-05-04T15:05:12.569Z,20.54
2023-05-04T15:07:40.634Z,20.70
2023-05-04T15:10:11.112Z,20.85
2023-05-04T15:12:40.140Z,20.81
2023-05-04T15:15:08.580Z,20.65
2023-05-04T15:17:36.176Z,20.55
2023-05-04T15:20:05.065Z,20.54
2023-05-04T15:22:32.713Z,20.55
2023-05-04T15:25:01.552Z,20.60
2023-05-04T15:27:30.407Z,20.69
2023-05-04T15:29:57.905Z,20.70
2023-05-04T15:32:25.739Z,20.83
2023-05-04T15:35:04.398Z,20.91
2023-05-04T15:37:33.196Z,20.98
2023-05-04T15:40:04.004Z,21.12
2023-05-04T15:42:33.175Z,21.11
2023-05-04T15:45:00.683Z,21.09
2023-05-04T15:47:28.210Z,21.10
2023-05-04T15:49:55.744Z,21.14
2023-05-04T15:52:23.830Z,21.21
2023-05-04T15:54:51.330Z,21.21
2023-05-04T15:57:18.860Z,21.17
2023-05-04T15:59:49.663Z,21.20
2023-05-04T16:02:17.448Z,21.14
2023-05-04T16:04:44.978Z,21.10
2023-05-04T16:07:12.508Z,20.99
2023-05-04T16:09:40.062Z,20.92
2023-05-04T16:12:08.188Z,20.86
2023-05-04T16:14:36.017Z,20.85
2023-05-04T16:17:05.032Z,20.70
2023-05-04T16:19:32.621Z,20.67
2023-05-04T16:22:00.147Z,20.70
2023-05-04T16:24:27.633Z,20.56
2023-05-04T16:26:55.200Z,20.36
2023-05-04T16:29:23.167Z,20.44
2023-05-04T16:31:50.964Z,20.45
2023-05-04T16:34:19.840Z,20.41
2023-05-04T16:36:47.370Z,20.45
2023-05-04T16:39:16.377Z,20.42
2023-05-04T16:41:46.617Z,20.45
2023-05-04T16:44:16.892Z,20.35
2023-05-04T16:46:44.564Z,20.28
2023-05-04T16:49:14.497Z,20.15
2023-05-04T16:51:46.249Z,20.12
2023-05-04T16:54:13.759Z,20.18
2023-05-04T16:56:41.378Z,20.08
2023-05-04T16:59:09.005Z,20.11
2023-05-04T17:01:36.567Z,20.15
2023-05-04T17:04:04.272Z,20.20
2023-05-04T17:06:32.037Z,20.23
2023-05-04T17:09:00.879Z,20.19
2023-05-04T17:11:29.241Z,20.22
2023-05-04T17:13:56.891Z,20.23
2023-05-04T17:16:24.556Z,20.10
2023-05-04T17:18:52.111Z,20.07
2023-05-04T17:21:19.777Z,20.10
2023-05-04T17:23:47.427Z,20.12
2023-05-04T17:26:16.454Z,20.04
2023-05-04T17:28:43.961Z,19.96
2023-05-04T17:31:12.267Z,19.83
2023-05-04T17:33:40.026Z,19.84
2023-05-04T17:36:08.309Z,19.76
2023-05-04T17:38:35.818Z,19.73
2023-05-04T17:41:04.333Z,19.69
2023-05-04T17:43:33.551Z,19.49
2023-05-04T17:46:02.066Z,19.36
2023-05-04T17:48:31.635Z,19.31
2023-05-04T17:50:59.332Z,19.09
2023-05-04T17:53:28.138Z,19.09
2023-05-04T17:55:55.778Z,19.03
2023-05-04T17:58:23.381Z,18.97
2023-05-04T18:00:53.135Z,18.90
2023-05-04T18:03:20.959Z,18.82
2023-05-04T18:05:48.592Z,18.75
2023-05-04T18:08:16.122Z,18.56
2023-05-04T18:10:43.756Z,18.50
2023-05-04T18:13:11.429Z,18.31
2023-05-04T18:15:40.021Z,18.28
2023-05-04T18:18:09.372Z,18.26
2023-05-04T18:20:36.978Z,18.20
2023-05-04T18:23:04.519Z,18.15
2023-05-04T18:25:32.007Z,17.96
2023-05-04T18:27:59.662Z,17.93
2023-05-04T18:30:27.318Z,17.89
2023-05-04T18:32:55.022Z,17.91
2023-05-04T18:35:23.886Z,17.80
2023-05-04T18:37:51.353Z,17.75
2023-05-04T18:40:18.896Z,17.73
2023-05-04T18:42:46.388Z,17.72
2023-05-04T18:45:13.994Z,17.70
2023-05-04T18:47:41.525Z,17.68
2023-05-04T18:50:10.461Z,17.65
2023-05-04T18:52:39.327Z,17.57
2023-05-04T18:55:07.967Z,17.39
2023-05-04T18:57:35.476Z,17.41
2023-05-04T19:00:03.050Z,17.33
2023-05-04T19:02:31.545Z,17.22
2023-05-04T19:04:59.079Z,17.14
2023-05-04T19:07:26.698Z,17.16
2023-05-04T19:09:55.551Z,17.01
2023-05-04T19:12:23.839Z,16.87
2023-05-04T19:14:51.886Z,17.01
2023-05-04T19:17:19.365Z,16.79
2023-05-04T19:19:46.948Z,16.57
2023-05-04T19:22:15.627Z,16.55
2023-05-04T19:24:43.363Z,16.32
2023-05-04T19:27:12.375Z,16.14
2023-05-04T19:29:39.943Z,16.17
2023-05-04T19:32:22.915Z,15.82
2023-05-04T19:34:52.100Z,15.75
2023-05-04T19:37:19.594Z,15.76
2023-05-04T19:39:47.434Z,15.63
2023-05-04T19:42:16.520Z,15.46
2023-05-04T19:44:44.040Z,15.47
2023-05-04T19:47:11.654Z,15.52
2023-05-04T19:49:43.947Z,15.33
2023-05-04T19:52:11.436Z,15.32
2023-05-04T19:54:44.115Z,15.23
2023-05-04T19:57:13.256Z,15.39
2023-05-04T19:59:42.956Z,15.06
2023-05-04T20:02:12.326Z,14.88
2023-05-04T20:04:39.815Z,14.97
2023-05-04T20:07:07.495Z,14.99
2023-05-04T20:09:35.337Z,14.78
2023-05-04T20:12:03.210Z,14.59
2023-05-04T20:14:31.384Z,14.39
2023-05-04T20:17:00.322Z,14.50
2023-05-04T20:19:28.047Z,14.55
2023-05-04T20:21:55.810Z,14.56
2023-05-04T20:24:23.446Z,14.65
2023-05-04T20:26:51.191Z,14.56
2023-05-04T20:29:18.860Z,14.46
2023-05-04T20:31:46.457Z,14.46
2023-05-04T20:34:16.403Z,14.35
2023-05-04T20:36:46.114Z,14.28
2023-05-04T20:39:13.632Z,14.29
2023-05-04T20:41:41.316Z,14.32
2023-05-04T20:44:08.815Z,14.27
2023-05-04T20:46:36.758Z,14.26
2023-05-04T20:49:04.268Z,14.24
2023-05-04T20:51:33.115Z,14.20
2023-05-04T20:54:00.678Z,14.21
2023-05-04T20:56:29.331Z,14.24
2023-05-04T20:58:57.014Z,14.12
2023-05-04T21:01:24.517Z,14.05
2023-05-04T21:03:52.430Z,14.08
2023-05-04T21:06:20.153Z,13.94
2023-05-04T21:08:48.990Z,13.95
2023-05-04T21:11:16.654Z,13.86
2023-05-04T21:13:44.134Z,13.84
2023-05-04T21:16:11.767Z,13.74
2023-05-04T21:18:39.322Z,13.63
2023-05-04T21:21:07.031Z,13.52
2023-05-04T21:23:34.858Z,13.42
2023-05-04T21:26:04.312Z,13.53
2023-05-04T21:28:32.747Z,13.44
2023-05-04T21:31:00.437Z,13.34
2023-05-04T21:33:28.030Z,13.41
2023-05-04T21:35:55.526Z,13.35
2023-05-04T21:38:23.007Z,13.43
2023-05-04T21:40:50.593Z,13.37
2023-05-04T21:43:19.397Z,13.36
2023-05-04T21:45:46.903Z,13.34
2023-05-04T21:48:14.369Z,13.31
2023-05-04T21:50:41.935Z,13.28
2023-05-04T21:53:09.431Z,13.25
2023-05-04T21:55:36.975Z,13.18
2023-05-04T21:58:04.473Z,13.26
2023-05-04T22:00:33.286Z,13.25
2023-05-04T22:03:01.083Z,13.29
2023-05-04T22:05:28.608Z,13.25
2023-05-04T22:07:56.095Z,13.26
2023-05-04T22:10:23.826Z,13.18
2023-05-04T22:12:51.342Z,13.15
2023-05-04T22:15:18.857Z,13.14
2023-05-04T22:17:48.461Z,13.12
2023-05-04T22:20:16.240Z,13.10
2023-05-04T22:22:44.066Z,13.07
2023-05-04T22:25:11.776Z,13.01
2023-05-04T22:27:39.228Z,12.97
2023-05-04T22:30:08.703Z,12.93
2023-05-04T22:32:36.421Z,13.02
2023-05-04T22:35:05.881Z,13.11
2023-05-04T22:37:33.396Z,12.88
2023-05-04T22:40:01.253Z,12.95
2023-05-04T22:42:28.969Z,13.04
2023-05-04T22:44:56.661Z,12.85
2023-05-04T22:47:24.486Z,12.87
2023-05-04T22:49:54.804Z,13.05
2023-05-04T22:52:23.957Z,12.90
2023-05-04T22:54:51.445Z,12.78
2023-05-04T22:57:19.473Z,12.63
2023-05-04T22:59:46.958Z,12.58
2023-05-04T23:02:15.121Z,12.52
2023-05-04T23:04:42.755Z,12.61
2023-05-04T23:07:10.533Z,12.48
2023-05-04T23:09:43.507Z,12.69
2023-05-04T23:12:11.005Z,12.72
2023-05-04T23:14:38.493Z,12.38
2023-05-04T23:17:06.154Z,12.17
2023-05-04T23:19:33.651Z,12.09
2023-05-04T23:22:01.166Z,12.01
2023-05-04T23:24:28.806Z,12.01
2023-05-04T23:26:57.717Z,11.92
2023-05-04T23:29:25.224Z,11.86
2023-05-04T23:31:53.205Z,11.86
2023-05-04T23:34:20.936Z,11.82
2023-05-04T23:36:49.149Z,11.71
2023-05-04T23:39:17.040Z,11.67
2023-05-04T23:41:44.592Z,11.72
2023-05-04T23:44:13.392Z,11.80
2023-05-04T23:46:40.894Z,11.79
2023-05-04T23:49:08.370Z,11.86
2023-05-04T23:51:35.849Z,11.85
2023-05-04T23:54:03.439Z,11.86
2023-05-04T23:56:31.983Z,11.83
2023-05-04T23:58:59.569Z,11.77
